sensor_id;sensor_type;location;lat;lon;timestamp;P1;durP1;ratioP1;P2;durP2;ratioP2
9082;SDS011;4577;48.704;9.000;2022-12-10T00:06:07;46.23;;;25.97;;
9082;SDS011;4577;48.704;9.000;2022-12-10T00:08:36;78.80;;;41.43;;
9082;SDS011;4577;48.704;9.000;2022-12-10T00:11:03;61.50;;;31.30;;
9082;SDS011;4577;48.704;9.000;2022-12-10T00:13:30;49.33;;;27.67;;
9082;SDS011;4577;48.704;9.000;2022-12-10T00:15:58;49.17;;;27.80;;
9082;SDS011;4577;48.704;9.000;2022-12-10T00:18:25;46.40;;;26.30;;
9082;SDS011;4577;48.704;9.000;2022-12-10T00:20:51;45.03;;;26.40;;
9082;SDS011;4577;48.704;9.000;2022-12-10T00:23:17;46.87;;;25.33;;
9082;SDS011;4577;48.704;9.000;2022-12-10T00:25:43;51.90;;;25.83;;
9082;SDS011;4577;48.704;9.000;2022-12-10T00:28:09;49.47;;;27.37;;
9082;SDS011;4577;48.704;9.000;2022-12-10T00:30:35;44.77;;;26.53;;
9082;SDS011;4577;48.704;9.000;2022-12-10T00:33:01;48.50;;;26.03;;
9082;SDS011;4577;48.704;9.000;2022-12-10T00:35:27;53.80;;;26.87;;
9082;SDS011;4577;48.704;9.000;2022-12-10T00:37:53;45.77;;;26.97;;
9082;SDS011;4577;48.704;9.000;2022-12-10T00:40:20;42.63;;;25.40;;
9082;SDS011;4577;48.704;9.000;2022-12-10T00:42:46;50.03;;;26.50;;
9082;SDS011;4577;48.704;9.000;2022-12-10T00:45:12;46.30;;;25.80;;
9082;SDS011;4577;48.704;9.000;2022-12-10T00:47:38;46.93;;;26.00;;
9082;SDS011;4577;48.704;9.000;2022-12-10T00:50:04;49.90;;;25.80;;
9082;SDS011;4577;48.704;9.000;2022-12-10T00:52:31;55.63;;;27.13;;
9082;SDS011;4577;48.704;9.000;2022-12-10T00:54:57;43.17;;;24.80;;
9082;SDS011;4577;48.704;9.000;2022-12-10T00:57:23;43.43;;;25.20;;
9082;SDS011;4577;48.704;9.000;2022-12-10T00:59:49;43.10;;;24.60;;
9082;SDS011;4577;48.704;9.000;2022-12-10T01:02:15;44.33;;;26.07;;
9082;SDS011;4577;48.704;9.000;2022-12-10T01:04:41;49.97;;;24.97;;
9082;SDS011;4577;48.704;9.000;2022-12-10T01:07:07;44.93;;;25.17;;
9082;SDS011;4577;48.704;9.000;2022-12-10T01:09:35;49.40;;;25.07;;
9082;SDS011;4577;48.704;9.000;2022-12-10T01:12:01;45.60;;;25.50;;
9082;SDS011;4577;48.704;9.000;2022-12-10T01:14:29;47.50;;;25.90;;
9082;SDS011;4577;48.704;9.000;2022-12-10T01:16:58;49.30;;;26.27;;
9082;SDS011;4577;48.704;9.000;2022-12-10T01:19:27;49.90;;;25.90;;
9082;SDS011;4577;48.704;9.000;2022-12-10T01:21:54;48.23;;;25.90;;
9082;SDS011;4577;48.704;9.000;2022-12-10T01:24:21;43.77;;;24.97;;
9082;SDS011;4577;48.704;9.000;2022-12-10T01:26:48;50.43;;;23.70;;
9082;SDS011;4577;48.704;9.000;2022-12-10T01:29:14;46.63;;;24.67;;
9082;SDS011;4577;48.704;9.000;2022-12-10T01:31:41;42.50;;;23.73;;
9082;SDS011;4577;48.704;9.000;2022-12-10T01:34:07;45.57;;;24.37;;
9082;SDS011;4577;48.704;9.000;2022-12-10T01:36:38;42.20;;;24.57;;
9082;SDS011;4577;48.704;9.000;2022-12-10T01:39:07;42.77;;;24.10;;
9082;SDS011;4577;48.704;9.000;2022-12-10T01:46:51;41.83;;;23.93;;
9082;SDS011;4577;48.704;9.000;2022-12-10T01:49:23;46.33;;;24.13;;
9082;SDS011;4577;48.704;9.000;2022-12-10T01:51:53;45.27;;;25.47;;
9082;SDS011;4577;48.704;9.000;2022-12-10T01:57:01;43.83;;;23.53;;
9082;SDS011;4577;48.704;9.000;2022-12-10T01:59:35;44.90;;;23.93;;
9082;SDS011;4577;48.704;9.000;2022-12-10T02:05:07;43.40;;;24.20;;
9082;SDS011;4577;48.704;9.000;2022-12-10T02:08:24;45.10;;;25.23;;
9082;SDS011;4577;48.704;9.000;2022-12-10T02:13:43;41.77;;;24.30;;
9082;SDS011;4577;48.704;9.000;2022-12-10T02:16:34;42.03;;;23.43;;
9082;SDS011;4577;48.704;9.000;2022-12-10T02:22:14;45.07;;;25.03;;
9082;SDS011;4577;48.704;9.000;2022-12-10T02:24:44;42.93;;;24.77;;
9082;SDS011;4577;48.704;9.000;2022-12-10T02:27:17;45.10;;;25.33;;
9082;SDS011;4577;48.704;9.000;2022-12-10T02:30:10;43.70;;;25.17;;
9082;SDS011;4577;48.704;9.000;2022-12-10T02:32:37;43.60;;;24.53;;
9082;SDS011;4577;48.704;9.000;2022-12-10T02:35:09;45.40;;;25.17;;
9082;SDS011;4577;48.704;9.000;2022-12-10T02:37:48;46.53;;;25.33;;
9082;SDS011;4577;48.704;9.000;2022-12-10T02:40:23;44.67;;;23.60;;
9082;SDS011;4577;48.704;9.000;2022-12-10T02:42:52;44.20;;;25.37;;
9082;SDS011;4577;48.704;9.000;2022-12-10T02:45:20;44.80;;;25.03;;
9082;SDS011;4577;48.704;9.000;2022-12-10T02:47:48;46.50;;;24.73;;
9082;SDS011;4577;48.704;9.000;2022-12-10T02:50:16;48.40;;;25.57;;
9082;SDS011;4577;48.704;9.000;2022-12-10T02:52:44;41.53;;;24.10;;
9082;SDS011;4577;48.704;9.000;2022-12-10T02:55:11;46.80;;;25.20;;
9082;SDS011;4577;48.704;9.000;2022-12-10T03:00:45;39.53;;;22.93;;
9082;SDS011;4577;48.704;9.000;2022-12-10T03:11:13;46.60;;;25.17;;
9082;SDS011;4577;48.704;9.000;2022-12-10T03:14:03;42.30;;;24.50;;
9082;SDS011;4577;48.704;9.000;2022-12-10T03:16:35;37.83;;;22.53;;
9082;SDS011;4577;48.704;9.000;2022-12-10T03:19:05;40.07;;;23.63;;
9082;SDS011;4577;48.704;9.000;2022-12-10T03:21:34;48.13;;;24.27;;
9082;SDS011;4577;48.704;9.000;2022-12-10T03:24:02;43.30;;;25.70;;
9082;SDS011;4577;48.704;9.000;2022-12-10T03:26:29;44.17;;;23.13;;
9082;SDS011;4577;48.704;9.000;2022-12-10T03:28:56;40.57;;;24.10;;
9082;SDS011;4577;48.704;9.000;2022-12-10T03:31:33;42.03;;;24.33;;
9082;SDS011;4577;48.704;9.000;2022-12-10T03:34:00;44.40;;;24.43;;
9082;SDS011;4577;48.704;9.000;2022-12-10T03:36:27;42.23;;;23.97;;
9082;SDS011;4577;48.704;9.000;2022-12-10T03:38:55;44.60;;;23.53;;
9082;SDS011;4577;48.704;9.000;2022-12-10T03:41:21;44.27;;;23.63;;
9082;SDS011;4577;48.704;9.000;2022-12-10T03:46:21;43.27;;;22.90;;
9082;SDS011;4577;48.704;9.000;2022-12-10T03:48:48;40.90;;;24.07;;
9082;SDS011;4577;48.704;9.000;2022-12-10T03:51:14;38.67;;;22.83;;
9082;SDS011;4577;48.704;9.000;2022-12-10T03:53:40;40.27;;;23.17;;
9082;SDS011;4577;48.704;9.000;2022-12-10T03:56:06;40.33;;;22.87;;
9082;SDS011;4577;48.704;9.000;2022-12-10T03:58:32;45.57;;;24.17;;
9082;SDS011;4577;48.704;9.000;2022-12-10T04:00:59;38.57;;;22.80;;
9082;SDS011;4577;48.704;9.000;2022-12-10T04:03:25;46.07;;;23.27;;
9082;SDS011;4577;48.704;9.000;2022-12-10T04:05:51;40.07;;;23.47;;
9082;SDS011;4577;48.704;9.000;2022-12-10T04:08:17;41.43;;;23.80;;
9082;SDS011;4577;48.704;9.000;2022-12-10T04:10:43;44.43;;;23.17;;
9082;SDS011;4577;48.704;9.000;2022-12-10T04:13:09;39.93;;;22.83;;
9082;SDS011;4577;48.704;9.000;2022-12-10T04:15:55;40.37;;;23.83;;
9082;SDS011;4577;48.704;9.000;2022-12-10T04:18:40;43.37;;;24.67;;
9082;SDS011;4577;48.704;9.000;2022-12-10T04:21:06;36.53;;;21.70;;
9082;SDS011;4577;48.704;9.000;2022-12-10T04:23:51;41.60;;;23.20;;
9082;SDS011;4577;48.704;9.000;2022-12-10T04:26:35;43.37;;;23.13;;
9082;SDS011;4577;48.704;9.000;2022-12-10T04:29:23;39.00;;;23.20;;
9082;SDS011;4577;48.704;9.000;2022-12-10T04:31:50;38.13;;;22.87;;
9082;SDS011;4577;48.704;9.000;2022-12-10T04:34:16;37.53;;;22.60;;
9082;SDS011;4577;48.704;9.000;2022-12-10T04:36:42;42.23;;;22.93;;
9082;SDS011;4577;48.704;9.000;2022-12-10T04:39:08;38.37;;;23.10;;
9082;SDS011;4577;48.704;9.000;2022-12-10T04:41:37;39.17;;;22.80;;
9082;SDS011;4577;48.704;9.000;2022-12-10T04:44:07;43.77;;;22.80;;
9082;SDS011;4577;48.704;9.000;2022-12-10T04:46:33;38.23;;;22.93;;
9082;SDS011;4577;48.704;9.000;2022-12-10T04:48:59;40.03;;;22.80;;
9082;SDS011;4577;48.704;9.000;2022-12-10T04:51:25;42.13;;;23.97;;
9082;SDS011;4577;48.704;9.000;2022-12-10T04:53:51;42.40;;;24.47;;
9082;SDS011;4577;48.704;9.000;2022-12-10T04:56:17;43.17;;;23.60;;
9082;SDS011;4577;48.704;9.000;2022-12-10T04:58:43;41.53;;;24.00;;
9082;SDS011;4577;48.704;9.000;2022-12-10T05:01:10;43.10;;;24.83;;
9082;SDS011;4577;48.704;9.000;2022-12-10T05:03:37;41.80;;;23.10;;
9082;SDS011;4577;48.704;9.000;2022-12-10T05:06:07;41.20;;;24.03;;
9082;SDS011;4577;48.704;9.000;2022-12-10T05:08:35;41.67;;;24.10;;
9082;SDS011;4577;48.704;9.000;2022-12-10T05:11:05;42.00;;;24.30;;
9082;SDS011;4577;48.704;9.000;2022-12-10T05:13:32;40.70;;;23.10;;
9082;SDS011;4577;48.704;9.000;2022-12-10T05:16:01;44.87;;;23.87;;
9082;SDS011;4577;48.704;9.000;2022-12-10T05:18:31;39.50;;;23.17;;
9082;SDS011;4577;48.704;9.000;2022-12-10T05:21:01;44.63;;;23.97;;
9082;SDS011;4577;48.704;9.000;2022-12-10T05:23:28;40.00;;;22.60;;
9082;SDS011;4577;48.704;9.000;2022-12-10T05:26:01;42.03;;;23.73;;
9082;SDS011;4577;48.704;9.000;2022-12-10T05:28:28;37.23;;;22.07;;
9082;SDS011;4577;48.704;9.000;2022-12-10T05:30:55;41.57;;;23.23;;
9082;SDS011;4577;48.704;9.000;2022-12-10T05:33:22;40.63;;;23.37;;
9082;SDS011;4577;48.704;9.000;2022-12-10T05:35:52;38.87;;;22.77;;
9082;SDS011;4577;48.704;9.000;2022-12-10T05:38:22;38.63;;;22.40;;
9082;SDS011;4577;48.704;9.000;2022-12-10T05:40:49;38.70;;;23.30;;
9082;SDS011;4577;48.704;9.000;2022-12-10T05:43:15;41.17;;;22.70;;
9082;SDS011;4577;48.704;9.000;2022-12-10T05:45:41;42.77;;;23.63;;
9082;SDS011;4577;48.704;9.000;2022-12-10T05:48:09;41.53;;;24.70;;
9082;SDS011;4577;48.704;9.000;2022-12-10T05:50:36;42.90;;;23.70;;
9082;SDS011;4577;48.704;9.000;2022-12-10T05:53:02;37.67;;;21.77;;
9082;SDS011;4577;48.704;9.000;2022-12-10T05:55:28;39.67;;;22.70;;
9082;SDS011;4577;48.704;9.000;2022-12-10T05:57:56;39.00;;;23.20;;
9082;SDS011;4577;48.704;9.000;2022-12-10T06:00:22;40.13;;;22.70;;
9082;SDS011;4577;48.704;9.000;2022-12-10T06:02:49;39.33;;;21.77;;
9082;SDS011;4577;48.704;9.000;2022-12-10T06:05:15;40.77;;;23.57;;
9082;SDS011;4577;48.704;9.000;2022-12-10T06:07:42;45.53;;;24.50;;
9082;SDS011;4577;48.704;9.000;2022-12-10T06:10:08;36.10;;;21.87;;
9082;SDS011;4577;48.704;9.000;2022-12-10T06:12:34;40.07;;;23.30;;
9082;SDS011;4577;48.704;9.000;2022-12-10T06:15:00;40.97;;;23.30;;
9082;SDS011;4577;48.704;9.000;2022-12-10T06:17:26;38.23;;;22.90;;
9082;SDS011;4577;48.704;9.000;2022-12-10T06:19:52;37.17;;;22.40;;
9082;SDS011;4577;48.704;9.000;2022-12-10T06:22:18;42.57;;;23.10;;
9082;SDS011;4577;48.704;9.000;2022-12-10T06:24:44;37.87;;;21.67;;
9082;SDS011;4577;48.704;9.000;2022-12-10T06:27:10;39.03;;;23.40;;
9082;SDS011;4577;48.704;9.000;2022-12-10T06:29:36;40.47;;;23.40;;
9082;SDS011;4577;48.704;9.000;2022-12-10T06:32:02;42.00;;;23.70;;
9082;SDS011;4577;48.704;9.000;2022-12-10T06:34:28;42.30;;;24.57;;
9082;SDS011;4577;48.704;9.000;2022-12-10T06:36:54;41.50;;;22.90;;
9082;SDS011;4577;48.704;9.000;2022-12-10T06:39:20;39.67;;;22.17;;
9082;SDS011;4577;48.704;9.000;2022-12-10T06:41:46;43.30;;;24.17;;
9082;SDS011;4577;48.704;9.000;2022-12-10T06:44:13;40.00;;;23.73;;
9082;SDS011;4577;48.704;9.000;2022-12-10T06:46:39;39.93;;;22.80;;
9082;SDS011;4577;48.704;9.000;2022-12-10T06:49:05;43.50;;;25.13;;
9082;SDS011;4577;48.704;9.000;2022-12-10T06:51:31;46.40;;;23.90;;
9082;SDS011;4577;48.704;9.000;2022-12-10T06:53:57;124.43;;;33.60;;
9082;SDS011;4577;48.704;9.000;2022-12-10T06:56:24;78.83;;;29.87;;
9082;SDS011;4577;48.704;9.000;2022-12-10T06:58:50;52.80;;;26.17;;
9082;SDS011;4577;48.704;9.000;2022-12-10T07:01:20;69.47;;;27.73;;
9082;SDS011;4577;48.704;9.000;2022-12-10T07:03:54;64.97;;;27.50;;
9082;SDS011;4577;48.704;9.000;2022-12-10T07:06:22;40.10;;;23.00;;
9082;SDS011;4577;48.704;9.000;2022-12-10T07:08:49;97.10;;;31.37;;
9082;SDS011;4577;48.704;9.000;2022-12-10T07:11:16;43.00;;;24.47;;
9082;SDS011;4577;48.704;9.000;2022-12-10T07:13:44;44.50;;;24.07;;
9082;SDS011;4577;48.704;9.000;2022-12-10T07:16:23;111.20;;;30.90;;
9082;SDS011;4577;48.704;9.000;2022-12-10T07:18:50;44.47;;;24.23;;
9082;SDS011;4577;48.704;9.000;2022-12-10T07:21:18;44.43;;;24.60;;
9082;SDS011;4577;48.704;9.000;2022-12-10T07:23:45;40.93;;;23.97;;
9082;SDS011;4577;48.704;9.000;2022-12-10T07:26:11;42.47;;;23.90;;
9082;SDS011;4577;48.704;9.000;2022-12-10T07:28:37;42.53;;;23.70;;
9082;SDS011;4577;48.704;9.000;2022-12-10T07:31:04;42.77;;;24.90;;
9082;SDS011;4577;48.704;9.000;2022-12-10T07:33:31;40.70;;;24.60;;
9082;SDS011;4577;48.704;9.000;2022-12-10T07:35:58;40.30;;;23.83;;
9082;SDS011;4577;48.704;9.000;2022-12-10T07:38:24;51.60;;;24.73;;
9082;SDS011;4577;48.704;9.000;2022-12-10T07:40:50;62.73;;;25.50;;
9082;SDS011;4577;48.704;9.000;2022-12-10T07:43:17;45.20;;;25.33;;
9082;SDS011;4577;48.704;9.000;2022-12-10T07:45:43;44.13;;;25.23;;
9082;SDS011;4577;48.704;9.000;2022-12-10T07:48:09;45.37;;;24.83;;
9082;SDS011;4577;48.704;9.000;2022-12-10T07:50:35;41.70;;;23.73;;
9082;SDS011;4577;48.704;9.000;2022-12-10T07:53:01;44.97;;;24.90;;
9082;SDS011;4577;48.704;9.000;2022-12-10T07:55:27;42.30;;;24.10;;
9082;SDS011;4577;48.704;9.000;2022-12-10T07:57:53;42.00;;;23.50;;
9082;SDS011;4577;48.704;9.000;2022-12-10T08:00:20;40.50;;;22.20;;
9082;SDS011;4577;48.704;9.000;2022-12-10T08:02:46;41.37;;;22.60;;
9082;SDS011;4577;48.704;9.000;2022-12-10T08:05:12;44.50;;;24.13;;
9082;SDS011;4577;48.704;9.000;2022-12-10T08:07:38;48.27;;;24.67;;
9082;SDS011;4577;48.704;9.000;2022-12-10T08:10:04;43.10;;;23.93;;
9082;SDS011;4577;48.704;9.000;2022-12-10T08:12:30;56.17;;;23.60;;
9082;SDS011;4577;48.704;9.000;2022-12-10T08:14:56;89.73;;;31.23;;
9082;SDS011;4577;48.704;9.000;2022-12-10T08:17:22;41.40;;;22.60;;
9082;SDS011;4577;48.704;9.000;2022-12-10T08:19:48;46.13;;;24.23;;
9082;SDS011;4577;48.704;9.000;2022-12-10T08:22:15;44.37;;;23.50;;
9082;SDS011;4577;48.704;9.000;2022-12-10T08:24:41;39.57;;;22.97;;
9082;SDS011;4577;48.704;9.000;2022-12-10T08:27:08;82.87;;;30.97;;
9082;SDS011;4577;48.704;9.000;2022-12-10T08:29:34;45.83;;;23.83;;
9082;SDS011;4577;48.704;9.000;2022-12-10T08:32:00;100.77;;;29.77;;
9082;SDS011;4577;48.704;9.000;2022-12-10T08:34:26;89.50;;;29.57;;
9082;SDS011;4577;48.704;9.000;2022-12-10T08:36:52;45.50;;;23.73;;
9082;SDS011;4577;48.704;9.000;2022-12-10T08:39:18;53.93;;;24.77;;
9082;SDS011;4577;48.704;9.000;2022-12-10T08:41:44;94.40;;;30.27;;
9082;SDS011;4577;48.704;9.000;2022-12-10T08:44:11;51.87;;;25.80;;
9082;SDS011;4577;48.704;9.000;2022-12-10T08:46:37;48.90;;;24.67;;
9082;SDS011;4577;48.704;9.000;2022-12-10T08:49:04;41.43;;;24.30;;
9082;SDS011;4577;48.704;9.000;2022-12-10T08:51:31;43.37;;;23.10;;
9082;SDS011;4577;48.704;9.000;2022-12-10T08:53:57;42.00;;;23.70;;
9082;SDS011;4577;48.704;9.000;2022-12-10T08:56:23;57.93;;;26.33;;
9082;SDS011;4577;48.704;9.000;2022-12-10T08:58:50;66.53;;;25.80;;
9082;SDS011;4577;48.704;9.000;2022-12-10T09:01:16;43.33;;;23.50;;
9082;SDS011;4577;48.704;9.000;2022-12-10T09:03:42;39.80;;;23.70;;
9082;SDS011;4577;48.704;9.000;2022-12-10T09:06:13;42.27;;;24.37;;
9082;SDS011;4577;48.704;9.000;2022-12-10T09:08:40;36.43;;;21.93;;
9082;SDS011;4577;48.704;9.000;2022-12-10T09:11:08;39.57;;;23.23;;
9082;SDS011;4577;48.704;9.000;2022-12-10T09:13:44;44.13;;;23.60;;
9082;SDS011;4577;48.704;9.000;2022-12-10T09:16:11;41.33;;;23.70;;
9082;SDS011;4577;48.704;9.000;2022-12-10T09:18:37;60.50;;;24.27;;
9082;SDS011;4577;48.704;9.000;2022-12-10T09:21:04;42.60;;;22.80;;
9082;SDS011;4577;48.704;9.000;2022-12-10T09:23:30;44.23;;;23.23;;
9082;SDS011;4577;48.704;9.000;2022-12-10T09:25:56;43.20;;;23.63;;
9082;SDS011;4577;48.704;9.000;2022-12-10T09:28:23;41.40;;;22.93;;
9082;SDS011;4577;48.704;9.000;2022-12-10T09:30:55;51.30;;;25.07;;
9082;SDS011;4577;48.704;9.000;2022-12-10T09:33:22;40.33;;;21.60;;
9082;SDS011;4577;48.704;9.000;2022-12-10T09:35:48;48.20;;;24.80;;
9082;SDS011;4577;48.704;9.000;2022-12-10T09:38:14;40.80;;;22.90;;
9082;SDS011;4577;48.704;9.000;2022-12-10T09:40:41;43.60;;;22.53;;
9082;SDS011;4577;48.704;9.000;2022-12-10T09:46:22;146.33;;;33.67;;
9082;SDS011;4577;48.704;9.000;2022-12-10T09:51:27;48.57;;;24.57;;
9082;SDS011;4577;48.704;9.000;2022-12-10T09:53:55;46.53;;;23.10;;
9082;SDS011;4577;48.704;9.000;2022-12-10T09:56:35;43.97;;;24.00;;
9082;SDS011;4577;48.704;9.000;2022-12-10T09:59:13;86.47;;;25.17;;
9082;SDS011;4577;48.704;9.000;2022-12-10T10:01:45;94.67;;;30.77;;
9082;SDS011;4577;48.704;9.000;2022-12-10T10:04:22;93.43;;;28.80;;
9082;SDS011;4577;48.704;9.000;2022-12-10T10:06:48;91.27;;;29.37;;
9082;SDS011;4577;48.704;9.000;2022-12-10T10:09:14;114.60;;;31.70;;
9082;SDS011;4577;48.704;9.000;2022-12-10T10:11:42;42.60;;;22.40;;
9082;SDS011;4577;48.704;9.000;2022-12-10T10:14:10;51.40;;;23.53;;
9082;SDS011;4577;48.704;9.000;2022-12-10T10:16:43;37.77;;;22.13;;
9082;SDS011;4577;48.704;9.000;2022-12-10T10:19:27;42.33;;;23.40;;
9082;SDS011;4577;48.704;9.000;2022-12-10T10:21:55;35.40;;;21.70;;
9082;SDS011;4577;48.704;9.000;2022-12-10T10:24:21;39.43;;;22.80;;
9082;SDS011;4577;48.704;9.000;2022-12-10T10:26:51;39.70;;;22.57;;
9082;SDS011;4577;48.704;9.000;2022-12-10T10:29:21;34.60;;;19.90;;
9082;SDS011;4577;48.704;9.000;2022-12-10T10:32:10;36.73;;;22.00;;
9082;SDS011;4577;48.704;9.000;2022-12-10T10:34:36;35.10;;;21.17;;
9082;SDS011;4577;48.704;9.000;2022-12-10T10:37:05;34.47;;;20.90;;
9082;SDS011;4577;48.704;9.000;2022-12-10T10:39:32;38.17;;;22.20;;
9082;SDS011;4577;48.704;9.000;2022-12-10T10:42:00;37.90;;;22.40;;
9082;SDS011;4577;48.704;9.000;2022-12-10T10:44:35;38.57;;;21.80;;
9082;SDS011;4577;48.704;9.000;2022-12-10T10:47:03;38.00;;;21.00;;
9082;SDS011;4577;48.704;9.000;2022-12-10T10:49:53;37.70;;;21.50;;
9082;SDS011;4577;48.704;9.000;2022-12-10T10:52:20;36.70;;;21.33;;
9082;SDS011;4577;48.704;9.000;2022-12-10T10:54:46;37.87;;;21.07;;
9082;SDS011;4577;48.704;9.000;2022-12-10T11:00:19;38.00;;;21.73;;
9082;SDS011;4577;48.704;9.000;2022-12-10T11:02:49;33.57;;;21.03;;
9082;SDS011;4577;48.704;9.000;2022-12-10T11:07:57;33.50;;;20.10;;
9082;SDS011;4577;48.704;9.000;2022-12-10T11:10:25;34.80;;;20.47;;
9082;SDS011;4577;48.704;9.000;2022-12-10T11:13:05;31.27;;;18.53;;
9082;SDS011;4577;48.704;9.000;2022-12-10T11:15:38;30.53;;;18.40;;
9082;SDS011;4577;48.704;9.000;2022-12-10T11:20:59;32.10;;;19.20;;
9082;SDS011;4577;48.704;9.000;2022-12-10T11:23:32;36.17;;;19.57;;
9082;SDS011;4577;48.704;9.000;2022-12-10T11:33:54;35.07;;;20.70;;
9082;SDS011;4577;48.704;9.000;2022-12-10T11:41:49;31.70;;;18.80;;
9082;SDS011;4577;48.704;9.000;2022-12-10T11:55:10;51.90;;;22.37;;
9082;SDS011;4577;48.704;9.000;2022-12-10T12:00:23;74.70;;;23.20;;
9082;SDS011;4577;48.704;9.000;2022-12-10T12:03:14;54.50;;;21.27;;
9082;SDS011;4577;48.704;9.000;2022-12-10T12:06:24;40.10;;;19.70;;
9082;SDS011;4577;48.704;9.000;2022-12-10T12:14:48;30.03;;;18.10;;
9082;SDS011;4577;48.704;9.000;2022-12-10T12:17:53;43.33;;;18.80;;
9082;SDS011;4577;48.704;9.000;2022-12-10T12:23:00;28.20;;;16.63;;
9082;SDS011;4577;48.704;9.000;2022-12-10T12:25:36;28.13;;;17.17;;
9082;SDS011;4577;48.704;9.000;2022-12-10T12:30:34;29.97;;;16.63;;
9082;SDS011;4577;48.704;9.000;2022-12-10T12:33:13;38.53;;;18.73;;
9082;SDS011;4577;48.704;9.000;2022-12-10T12:36:10;26.50;;;15.63;;
9082;SDS011;4577;48.704;9.000;2022-12-10T12:38:43;28.83;;;16.60;;
9082;SDS011;4577;48.704;9.000;2022-12-10T12:41:15;30.00;;;16.30;;
9082;SDS011;4577;48.704;9.000;2022-12-10T12:43:56;26.20;;;15.90;;
9082;SDS011;4577;48.704;9.000;2022-12-10T12:46:38;28.70;;;16.47;;
9082;SDS011;4577;48.704;9.000;2022-12-10T12:51:46;26.40;;;15.50;;
9082;SDS011;4577;48.704;9.000;2022-12-10T12:54:19;26.60;;;15.17;;
9082;SDS011;4577;48.704;9.000;2022-12-10T12:59:18;27.93;;;16.80;;
9082;SDS011;4577;48.704;9.000;2022-12-10T13:04:33;25.47;;;15.70;;
9082;SDS011;4577;48.704;9.000;2022-12-10T13:10:18;28.40;;;16.17;;
9082;SDS011;4577;48.704;9.000;2022-12-10T13:12:50;28.43;;;15.73;;
9082;SDS011;4577;48.704;9.000;2022-12-10T13:15:35;29.10;;;16.70;;
9082;SDS011;4577;48.704;9.000;2022-12-10T13:23:31;26.33;;;15.43;;
9082;SDS011;4577;48.704;9.000;2022-12-10T13:25:59;29.63;;;16.83;;
9082;SDS011;4577;48.704;9.000;2022-12-10T13:28:31;26.10;;;15.90;;
9082;SDS011;4577;48.704;9.000;2022-12-10T13:31:19;28.77;;;16.60;;
9082;SDS011;4577;48.704;9.000;2022-12-10T13:36:27;29.07;;;16.10;;
9082;SDS011;4577;48.704;9.000;2022-12-10T13:38:54;29.00;;;16.30;;
9082;SDS011;4577;48.704;9.000;2022-12-10T13:41:21;27.57;;;15.30;;
9082;SDS011;4577;48.704;9.000;2022-12-10T13:44:24;28.60;;;16.73;;
9082;SDS011;4577;48.704;9.000;2022-12-10T13:49:25;33.13;;;17.60;;
9082;SDS011;4577;48.704;9.000;2022-12-10T13:52:05;30.90;;;17.10;;
9082;SDS011;4577;48.704;9.000;2022-12-10T14:00:09;32.00;;;17.03;;
9082;SDS011;4577;48.704;9.000;2022-12-10T14:05:23;32.97;;;17.13;;
9082;SDS011;4577;48.704;9.000;2022-12-10T14:07:55;27.63;;;15.10;;
9082;SDS011;4577;48.704;9.000;2022-12-10T14:10:24;29.07;;;15.60;;
9082;SDS011;4577;48.704;9.000;2022-12-10T14:12:54;28.30;;;15.67;;
9082;SDS011;4577;48.704;9.000;2022-12-10T14:15:21;29.40;;;16.37;;
9082;SDS011;4577;48.704;9.000;2022-12-10T14:18:13;28.83;;;16.20;;
9082;SDS011;4577;48.704;9.000;2022-12-10T14:20:39;31.87;;;16.33;;
9082;SDS011;4577;48.704;9.000;2022-12-10T14:23:24;28.07;;;16.53;;
9082;SDS011;4577;48.704;9.000;2022-12-10T14:26:09;27.67;;;16.60;;
9082;SDS011;4577;48.704;9.000;2022-12-10T14:28:39;30.83;;;17.37;;
9082;SDS011;4577;48.704;9.000;2022-12-10T14:31:10;27.90;;;16.30;;
9082;SDS011;4577;48.704;9.000;2022-12-10T14:33:43;27.73;;;16.73;;
9082;SDS011;4577;48.704;9.000;2022-12-10T14:36:20;33.47;;;16.87;;
9082;SDS011;4577;48.704;9.000;2022-12-10T14:38:51;29.00;;;16.60;;
9082;SDS011;4577;48.704;9.000;2022-12-10T14:41:18;33.43;;;17.10;;
9082;SDS011;4577;48.704;9.000;2022-12-10T14:43:46;28.93;;;17.10;;
9082;SDS011;4577;48.704;9.000;2022-12-10T14:46:13;30.80;;;16.80;;
9082;SDS011;4577;48.704;9.000;2022-12-10T14:48:48;30.53;;;17.17;;
9082;SDS011;4577;48.704;9.000;2022-12-10T14:51:16;33.57;;;17.70;;
9082;SDS011;4577;48.704;9.000;2022-12-10T14:53:48;29.30;;;16.73;;
9082;SDS011;4577;48.704;9.000;2022-12-10T14:56:18;30.13;;;16.13;;
9082;SDS011;4577;48.704;9.000;2022-12-10T15:01:33;29.47;;;16.90;;
9082;SDS011;4577;48.704;9.000;2022-12-10T15:04:04;28.03;;;16.13;;
9082;SDS011;4577;48.704;9.000;2022-12-10T15:06:35;27.57;;;15.60;;
9082;SDS011;4577;48.704;9.000;2022-12-10T15:09:02;29.20;;;15.67;;
9082;SDS011;4577;48.704;9.000;2022-12-10T15:11:29;36.80;;;15.80;;
9082;SDS011;4577;48.704;9.000;2022-12-10T15:13:59;26.37;;;15.77;;
9082;SDS011;4577;48.704;9.000;2022-12-10T15:16:29;28.17;;;15.77;;
9082;SDS011;4577;48.704;9.000;2022-12-10T15:19:20;30.53;;;17.03;;
9082;SDS011;4577;48.704;9.000;2022-12-10T15:21:54;29.00;;;15.90;;
9082;SDS011;4577;48.704;9.000;2022-12-10T15:24:38;30.77;;;15.33;;
9082;SDS011;4577;48.704;9.000;2022-12-10T15:27:20;35.70;;;18.97;;
9082;SDS011;4577;48.704;9.000;2022-12-10T15:29:48;29.13;;;16.50;;
9082;SDS011;4577;48.704;9.000;2022-12-10T15:32:15;36.70;;;17.90;;
9082;SDS011;4577;48.704;9.000;2022-12-10T15:34:53;32.17;;;18.70;;
9082;SDS011;4577;48.704;9.000;2022-12-10T15:37:24;33.67;;;17.03;;
9082;SDS011;4577;48.704;9.000;2022-12-10T15:39:55;37.53;;;18.77;;
9082;SDS011;4577;48.704;9.000;2022-12-10T15:42:31;33.03;;;17.67;;
9082;SDS011;4577;48.704;9.000;2022-12-10T15:45:08;28.03;;;15.33;;
9082;SDS011;4577;48.704;9.000;2022-12-10T15:47:41;30.37;;;16.80;;
9082;SDS011;4577;48.704;9.000;2022-12-10T15:50:08;33.43;;;18.10;;
9082;SDS011;4577;48.704;9.000;2022-12-10T15:52:34;32.27;;;17.77;;
9082;SDS011;4577;48.704;9.000;2022-12-10T15:55:00;38.40;;;19.93;;
9082;SDS011;4577;48.704;9.000;2022-12-10T15:57:28;31.87;;;17.73;;
9082;SDS011;4577;48.704;9.000;2022-12-10T16:00:38;34.00;;;18.57;;
9082;SDS011;4577;48.704;9.000;2022-12-10T16:05:36;32.60;;;17.77;;
9082;SDS011;4577;48.704;9.000;2022-12-10T16:10:45;33.50;;;17.43;;
9082;SDS011;4577;48.704;9.000;2022-12-10T16:13:16;30.50;;;16.70;;
9082;SDS011;4577;48.704;9.000;2022-12-10T16:15:58;30.03;;;17.10;;
9082;SDS011;4577;48.704;9.000;2022-12-10T16:18:27;29.30;;;15.87;;
9082;SDS011;4577;48.704;9.000;2022-12-10T16:20:53;24.63;;;15.30;;
9082;SDS011;4577;48.704;9.000;2022-12-10T16:23:19;29.17;;;15.77;;
9082;SDS011;4577;48.704;9.000;2022-12-10T16:25:46;25.00;;;15.40;;
9082;SDS011;4577;48.704;9.000;2022-12-10T16:28:13;31.90;;;15.33;;
9082;SDS011;4577;48.704;9.000;2022-12-10T16:30:44;31.03;;;17.43;;
9082;SDS011;4577;48.704;9.000;2022-12-10T16:33:11;25.80;;;15.60;;
9082;SDS011;4577;48.704;9.000;2022-12-10T16:35:38;33.70;;;15.47;;
9082;SDS011;4577;48.704;9.000;2022-12-10T16:38:04;29.17;;;16.70;;
9082;SDS011;4577;48.704;9.000;2022-12-10T16:40:31;25.27;;;15.83;;
9082;SDS011;4577;48.704;9.000;2022-12-10T16:42:57;27.63;;;15.70;;
9082;SDS011;4577;48.704;9.000;2022-12-10T16:45:26;29.07;;;16.20;;
9082;SDS011;4577;48.704;9.000;2022-12-10T16:47:54;29.60;;;16.33;;
9082;SDS011;4577;48.704;9.000;2022-12-10T16:50:20;25.17;;;15.53;;
9082;SDS011;4577;48.704;9.000;2022-12-10T16:52:47;30.27;;;16.73;;
9082;SDS011;4577;48.704;9.000;2022-12-10T16:55:15;26.07;;;15.87;;
9082;SDS011;4577;48.704;9.000;2022-12-10T16:57:43;29.93;;;15.97;;
9082;SDS011;4577;48.704;9.000;2022-12-10T17:00:14;29.17;;;15.93;;
9082;SDS011;4577;48.704;9.000;2022-12-10T17:02:42;29.20;;;16.90;;
9082;SDS011;4577;48.704;9.000;2022-12-10T17:05:13;30.70;;;16.97;;
9082;SDS011;4577;48.704;9.000;2022-12-10T17:07:42;31.47;;;17.73;;
9082;SDS011;4577;48.704;9.000;2022-12-10T17:10:12;34.30;;;19.10;;